Route Details

Aircraft Information
Group: North America Light
Types: B738, B752, B762
Route Data
Distance: 575nm
Duration: 2h 04m
Origin METAR: KBOI 171053Z 19004KT 10SM CLR 21/03 A3000 RMK AO2 SLP122 T02110033 $
Dest. METAR: KONT 171053Z 17004KT 10SM SCT180 23/14 A2988 RMK AO2 SLP097 T02280144
Freight Data
(for Aug 18, 2022)
Load Factor:
77%
Manifested Cargo: 53,912lbs
Financial History
Total Freight: 0lbs
Average Load: 0lbs/flt
Fuel Used: 0lbs
Avg. Fuel Used: 0lbs/flt
Fuel Expense: $0
Avg. Fuel Expense: $0
Avg. Fuel Cost: $0/lbs
Total Gross Income: $0
Pilot Pay: $0
Total Expenses: $0
Total Revenue: $0
Average Revenue: $0

Capitol Logistics 438




KBOI
Boise Air Terminal/Gowen field
Boise, Idaho
KONT
Ontario International Airport
Ontario, California

Activity Log

Date Flight Route Aircraft Duration
No Flights Yet